Time;durP1;ratioP1;P1;durP2;ratioP2;P2;SDS_P1;SDS_P2;PMS_P1;PMS_P2;Temp;Humidity;BMP_temperature;BMP_pressure;BME280_temperature;BME280_humidity;BME280_pressure;Samples;Min_cycle;Max_cycle;Signal;HPM_P1;HPM_P2
2023/03/17 00:01:38;;;;;;;6.40;4.32;;;7.30;99.90;;;;;;4996267;28;20505;-69
2023/03/17 00:04:04;;;;;;;8.23;4.40;;;7.30;99.90;;;;;;4995537;28;20424;-68
2023/03/17 00:06:32;;;;;;;6.30;4.50;;;7.30;99.90;;;;;;5003783;28;20464;-69
2023/03/17 00:08:58;;;;;;;7.32;4.28;;;7.30;99.90;;;;;;5007382;28;20417;-69
2023/03/17 00:11:25;;;;;;;6.57;4.35;;;7.30;99.90;;;;;;4996712;28;20944;-69
2023/03/17 00:13:51;;;;;;;8.50;5.10;;;7.30;99.90;;;;;;5006380;28;20459;-69
2023/03/17 00:16:24;;;;;;;7.70;4.03;;;7.30;99.90;;;;;;5006789;28;20426;-69
2023/03/17 00:18:52;;;;;;;6.75;4.40;;;7.40;99.90;;;;;;5006888;28;20425;-70
2023/03/17 00:21:26;;;;;;;6.10;4.15;;;7.30;99.90;;;;;;5003212;28;20426;-71
2023/03/17 00:23:53;;;;;;;8.95;5.00;;;7.40;99.90;;;;;;5000512;28;20432;-69
2023/03/17 00:26:19;;;;;;;5.80;4.35;;;7.40;99.90;;;;;;4997383;28;20430;-69
2023/03/17 00:28:45;;;;;;;5.83;4.30;;;7.50;99.90;;;;;;4978551;28;21056;-69
2023/03/17 00:31:31;;;;;;;6.90;4.50;;;7.40;99.90;;;;;;5007948;28;20511;-70
2023/03/17 00:33:57;;;;;;;6.72;4.25;;;7.40;99.90;;;;;;5003470;28;20433;-69
2023/03/17 00:36:28;;;;;;;5.60;4.03;;;7.50;99.90;;;;;;5009517;28;20505;-68
2023/03/17 00:38:54;;;;;;;6.55;3.83;;;7.50;99.90;;;;;;5007871;28;20582;-68
2023/03/17 00:41:21;;;;;;;5.38;3.72;;;7.50;99.90;;;;;;5008169;28;20843;-70
2023/03/17 00:43:47;;;;;;;6.80;4.47;;;7.50;99.90;;;;;;5007395;28;20431;-69
2023/03/17 00:46:15;;;;;;;7.20;4.20;;;7.50;99.90;;;;;;5007349;28;20995;-68
2023/03/17 00:48:45;;;;;;;6.60;3.65;;;7.50;99.90;;;;;;5007831;28;20456;-71
2023/03/17 00:51:12;;;;;;;9.20;4.43;;;7.50;99.90;;;;;;5003439;28;20432;-70
2023/03/17 00:53:37;;;;;;;8.35;4.25;;;7.50;99.90;;;;;;5007009;28;20416;-69
2023/03/17 00:56:08;;;;;;;4.90;3.80;;;7.50;99.90;;;;;;5007661;28;20425;-70
2023/03/17 00:58:33;;;;;;;7.13;3.85;;;7.50;99.90;;;;;;5006264;28;20428;-70
2023/03/17 01:01:00;;;;;;;8.95;3.38;;;7.50;99.90;;;;;;5002008;28;20441;-70
2023/03/17 01:03:26;;;;;;;6.35;3.75;;;7.40;99.90;;;;;;4999595;28;20791;-70
2023/03/17 01:05:53;;;;;;;6.35;4.10;;;7.50;99.90;;;;;;5006100;28;20428;-69
2023/03/17 01:08:21;;;;;;;8.38;4.55;;;7.50;99.90;;;;;;5006647;28;20436;-70
2023/03/17 01:10:47;;;;;;;6.30;4.10;;;7.50;99.90;;;;;;4992085;28;20454;-69
2023/03/17 01:13:13;;;;;;;6.20;3.97;;;7.50;99.90;;;;;;5005045;28;20471;-70
2023/03/17 01:15:45;;;;;;;7.75;3.70;;;7.50;99.90;;;;;;5006893;28;20424;-70
2023/03/17 01:18:13;;;;;;;6.53;4.05;;;7.50;99.90;;;;;;5002835;28;20519;-69
2023/03/17 01:20:39;;;;;;;4.38;3.50;;;7.50;99.90;;;;;;5002320;28;20791;-69
2023/03/17 01:23:05;;;;;;;6.70;3.90;;;7.50;99.90;;;;;;5001700;28;20437;-68
2023/03/17 01:25:32;;;;;;;6.60;3.38;;;7.50;99.90;;;;;;4998999;28;20460;-69
2023/03/17 01:27:58;;;;;;;7.05;3.80;;;7.50;99.90;;;;;;5005723;28;20789;-69
2023/03/17 01:30:37;;;;;;;5.03;3.10;;;7.50;99.90;;;;;;5004549;28;20891;-68
2023/03/17 01:33:05;;;;;;;6.50;3.37;;;7.50;99.90;;;;;;4998727;28;20927;-69
2023/03/17 01:35:31;;;;;;;6.25;3.30;;;7.50;99.90;;;;;;5006486;28;20436;-69
2023/03/17 01:37:58;;;;;;;7.30;3.88;;;7.50;99.90;;;;;;5005360;28;20982;-70
2023/03/17 01:40:32;;;;;;;6.00;3.83;;;7.50;99.90;;;;;;5003674;28;20507;-69
2023/03/17 01:43:13;;;;;;;5.57;3.20;;;7.60;99.90;;;;;;4990061;28;20513;-68
2023/03/17 01:46:12;;;;;;;6.93;3.70;;;7.60;99.90;;;;;;4998593;28;20460;-69
2023/03/17 01:48:51;;;;;;;6.07;3.53;;;7.60;99.90;;;;;;5004949;28;20425;-71
2023/03/17 01:51:23;;;;;;;5.35;3.17;;;7.60;99.90;;;;;;5004177;28;20986;-69
2023/03/17 01:53:51;;;;;;;4.93;3.58;;;7.50;99.90;;;;;;5007612;28;20432;-70
2023/03/17 01:56:18;;;;;;;5.57;3.50;;;7.60;99.90;;;;;;5006040;28;20768;-68
2023/03/17 01:58:47;;;;;;;8.70;4.10;;;7.50;99.90;;;;;;5007181;28;20435;-69
2023/03/17 02:01:12;;;;;;;6.53;3.72;;;7.50;99.90;;;;;;4995717;28;20449;-69
2023/03/17 02:03:39;;;;;;;4.47;3.33;;;7.50;99.90;;;;;;5001747;28;20919;-69
2023/03/17 02:06:06;;;;;;;5.32;3.85;;;7.50;99.90;;;;;;5003379;28;20429;-68
2023/03/17 02:08:31;;;;;;;6.07;3.97;;;7.50;99.90;;;;;;5004306;28;20465;-70
2023/03/17 02:10:58;;;;;;;5.20;3.37;;;7.40;99.90;;;;;;4999512;28;20918;-69
2023/03/17 02:13:23;;;;;;;5.65;3.92;;;7.40;99.90;;;;;;5060657;23;20435;-77
2023/03/17 02:15:51;;;;;;;5.60;3.63;;;7.40;99.90;;;;;;4996499;28;20940;-77
2023/03/17 02:18:20;;;;;;;5.78;3.80;;;7.40;99.90;;;;;;4985414;28;20419;-76
2023/03/17 02:20:46;;;;;;;5.57;3.33;;;7.30;99.90;;;;;;4995047;28;20433;-76
2023/03/17 02:23:16;;;;;;;8.18;3.95;;;7.40;99.90;;;;;;5006236;28;20423;-77
2023/03/17 02:25:46;;;;;;;4.63;2.95;;;7.40;99.90;;;;;;5006639;28;20425;-76
2023/03/17 02:28:15;;;;;;;5.30;3.45;;;7.30;99.90;;;;;;4997865;28;20422;-77
2023/03/17 02:30:42;;;;;;;6.28;3.95;;;7.40;99.90;;;;;;5003952;28;20824;-76
2023/03/17 02:33:11;;;;;;;6.82;3.47;;;7.40;99.90;;;;;;5004105;28;20436;-77
2023/03/17 02:35:38;;;;;;;7.32;3.75;;;7.30;99.90;;;;;;5004871;28;20436;-76
2023/03/17 02:38:04;;;;;;;7.10;4.70;;;7.40;99.90;;;;;;5001399;28;22366;-76
2023/03/17 02:40:29;;;;;;;6.22;3.65;;;7.40;99.90;;;;;;4984930;28;20425;-78
2023/03/17 02:42:56;;;;;;;5.05;3.38;;;7.40;99.90;;;;;;5006399;28;20957;-77
2023/03/17 02:45:22;;;;;;;4.23;3.60;;;7.40;99.90;;;;;;5003349;28;20420;-76
2023/03/17 02:47:50;;;;;;;5.70;3.70;;;7.40;99.90;;;;;;5001250;28;20444;-77
2023/03/17 02:50:24;;;;;;;6.75;4.50;;;7.40;99.90;;;;;;5005230;28;20514;-76
2023/03/17 02:52:50;;;;;;;5.35;3.83;;;7.40;99.90;;;;;;4987768;28;20429;-76
2023/03/17 02:55:16;;;;;;;4.70;3.53;;;7.40;99.90;;;;;;5009522;28;20491;-76
2023/03/17 02:57:42;;;;;;;4.23;3.43;;;7.40;99.90;;;;;;4999306;28;20884;-76
2023/03/17 03:00:10;;;;;;;7.50;3.83;;;7.40;99.90;;;;;;5010171;28;20494;-76
2023/03/17 03:02:39;;;;;;;5.90;3.42;;;7.40;99.90;;;;;;4992817;28;20433;-76
2023/03/17 03:05:07;;;;;;;5.90;3.60;;;7.40;99.90;;;;;;4991445;28;20454;-76
2023/03/17 03:07:33;;;;;;;5.47;3.65;;;7.30;99.90;;;;;;5017093;28;20924;-76
2023/03/17 03:09:59;;;;;;;4.85;3.80;;;7.40;99.90;;;;;;5001865;28;20416;-76
2023/03/17 03:12:25;;;;;;;7.18;3.90;;;7.40;99.90;;;;;;5008546;28;20428;-76
2023/03/17 03:14:51;;;;;;;5.35;3.97;;;7.40;99.90;;;;;;5009419;28;20419;-76
2023/03/17 03:17:17;;;;;;;5.28;3.88;;;7.40;99.90;;;;;;5005279;28;20515;-76
2023/03/17 03:19:43;;;;;;;5.13;3.60;;;7.40;99.90;;;;;;4994418;28;20425;-77
2023/03/17 03:22:09;;;;;;;6.13;3.58;;;7.50;99.90;;;;;;4991365;28;20437;-76
2023/03/17 03:24:35;;;;;;;6.10;3.80;;;7.50;99.90;;;;;;5008939;28;20483;-77
2023/03/17 03:27:00;;;;;;;6.77;3.53;;;7.40;99.90;;;;;;5008801;28;20802;-75
2023/03/17 03:29:26;;;;;;;5.03;3.65;;;7.50;99.90;;;;;;5010569;28;20897;-76
2023/03/17 03:31:52;;;;;;;7.80;3.60;;;7.50;99.90;;;;;;5006974;28;20439;-76
2023/03/17 03:34:18;;;;;;;6.38;3.80;;;7.50;99.90;;;;;;5009075;28;20949;-77
2023/03/17 03:36:44;;;;;;;5.20;3.55;;;7.50;99.90;;;;;;5009512;28;20424;-76
2023/03/17 03:39:09;;;;;;;4.73;3.73;;;7.50;99.90;;;;;;5007370;28;20416;-75
2023/03/17 03:41:35;;;;;;;5.13;3.63;;;7.50;99.90;;;;;;5004934;28;20440;-76
2023/03/17 03:44:01;;;;;;;6.63;4.10;;;7.50;99.90;;;;;;5007661;28;20409;-75
2023/03/17 03:46:27;;;;;;;6.43;4.17;;;7.50;99.90;;;;;;5007618;28;20801;-76
2023/03/17 03:48:54;;;;;;;5.28;3.50;;;7.50;99.90;;;;;;5008250;28;20521;-77
2023/03/17 03:51:19;;;;;;;5.75;3.65;;;7.50;99.90;;;;;;4999603;28;20430;-76
2023/03/17 03:53:47;;;;;;;4.40;3.45;;;7.40;99.90;;;;;;5006070;28;20428;-77
2023/03/17 03:56:13;;;;;;;4.50;3.40;;;7.40;99.90;;;;;;5007067;28;20432;-77
2023/03/17 03:58:39;;;;;;;8.10;4.25;;;7.50;99.90;;;;;;5004709;28;20426;-76
2023/03/17 04:01:06;;;;;;;6.78;4.00;;;7.50;99.90;;;;;;4998973;28;20427;-76
2023/03/17 04:03:32;;;;;;;5.80;3.65;;;7.30;99.90;;;;;;5004032;28;20466;-76
2023/03/17 04:05:57;;;;;;;7.27;3.67;;;7.40;99.90;;;;;;5001144;28;20515;-76
2023/03/17 04:08:23;;;;;;;7.13;3.40;;;7.40;99.90;;;;;;5018980;28;20435;-75
2023/03/17 04:10:49;;;;;;;6.87;3.50;;;7.40;99.90;;;;;;4997965;28;20500;-80
2023/03/17 04:13:14;;;;;;;6.30;3.60;;;7.30;99.90;;;;;;5008485;28;20535;-78
2023/03/17 04:15:41;;;;;;;4.80;3.67;;;7.40;99.90;;;;;;5006724;28;20854;-78
2023/03/17 04:18:07;;;;;;;5.95;3.60;;;7.30;99.90;;;;;;4998111;28;20517;-76
2023/03/17 04:20:33;;;;;;;7.50;3.95;;;7.30;99.90;;;;;;5008218;28;20500;-75
2023/03/17 04:22:58;;;;;;;6.57;4.38;;;7.40;99.90;;;;;;4990848;28;20474;-76
2023/03/17 04:25:24;;;;;;;6.90;4.07;;;7.30;99.90;;;;;;4997638;28;20477;-76
2023/03/17 04:27:50;;;;;;;4.87;3.70;;;7.30;99.90;;;;;;4996465;28;20433;-76
2023/03/17 04:30:16;;;;;;;6.43;3.53;;;7.40;99.90;;;;;;5009405;28;20411;-76
2023/03/17 04:32:43;;;;;;;5.03;3.47;;;7.30;99.90;;;;;;5006042;28;20462;-76
2023/03/17 04:35:14;;;;;;;5.60;4.13;;;7.30;99.90;;;;;;4991244;28;20409;-76
2023/03/17 04:37:40;;;;;;;6.18;3.92;;;7.20;99.90;;;;;;5006800;28;20487;-76
2023/03/17 04:40:08;;;;;;;7.22;3.30;;;7.20;99.90;;;;;;5007792;28;20980;-76
2023/03/17 04:42:35;;;;;;;6.30;3.58;;;7.10;99.90;;;;;;5001342;28;20500;-76
2023/03/17 04:45:01;;;;;;;4.40;3.22;;;7.10;99.90;;;;;;5007822;28;20421;-76
2023/03/17 04:47:26;;;;;;;6.07;3.83;;;7.10;99.90;;;;;;5007625;28;20437;-76
2023/03/17 04:49:52;;;;;;;4.07;3.45;;;7.00;99.90;;;;;;5008039;28;20941;-77
2023/03/17 04:52:18;;;;;;;5.20;3.30;;;7.00;99.90;;;;;;5007665;28;20432;-77
2023/03/17 04:54:44;;;;;;;5.50;3.33;;;7.00;99.90;;;;;;5008658;28;20476;-75
2023/03/17 04:57:09;;;;;;;4.80;3.80;;;7.00;99.90;;;;;;5007211;28;20748;-75
2023/03/17 04:59:35;;;;;;;7.33;3.70;;;7.10;99.90;;;;;;5007897;28;20424;-74
2023/03/17 05:02:01;;;;;;;4.67;3.67;;;7.00;99.90;;;;;;4993770;28;20430;-75
2023/03/17 05:04:27;;;;;;;5.00;3.50;;;7.00;99.90;;;;;;5001677;28;20487;-75
2023/03/17 05:06:52;;;;;;;5.68;4.18;;;7.10;99.90;;;;;;5006978;28;20436;-75
2023/03/17 05:09:18;;;;;;;4.55;3.60;;;7.10;99.90;;;;;;5005870;28;20449;-75
2023/03/17 05:11:43;;;;;;;9.43;4.20;;;7.10;99.90;;;;;;4989665;28;20491;-75
2023/03/17 05:14:09;;;;;;;4.57;2.85;;;7.10;99.90;;;;;;4993897;28;20461;-76
2023/03/17 05:16:35;;;;;;;6.18;4.05;;;7.20;99.90;;;;;;5006222;28;20544;-75
2023/03/17 05:19:00;;;;;;;4.32;3.28;;;7.10;99.90;;;;;;4989567;28;20428;-75
2023/03/17 05:21:26;;;;;;;5.97;3.30;;;7.20;99.90;;;;;;5007269;28;20429;-76
2023/03/17 05:23:52;;;;;;;7.13;3.30;;;7.20;99.90;;;;;;5007189;28;20931;-76
2023/03/17 05:26:18;;;;;;;4.35;3.08;;;7.30;99.90;;;;;;5007193;28;20433;-77
2023/03/17 05:28:44;;;;;;;5.95;3.30;;;7.30;99.90;;;;;;5007879;28;20933;-77
2023/03/17 05:31:10;;;;;;;3.67;3.13;;;7.30;99.90;;;;;;5007130;28;20420;-77
2023/03/17 05:33:36;;;;;;;4.80;3.47;;;7.40;99.90;;;;;;5003075;28;20433;-76
2023/03/17 05:36:02;;;;;;;4.85;3.15;;;7.40;99.90;;;;;;5007956;28;20478;-77
2023/03/17 05:38:28;;;;;;;5.75;2.83;;;7.40;99.90;;;;;;5003305;28;20436;-77
2023/03/17 05:40:54;;;;;;;7.97;3.60;;;7.40;99.90;;;;;;5003426;28;20432;-77
2023/03/17 05:43:20;;;;;;;4.85;3.72;;;7.50;99.90;;;;;;5003280;28;20432;-77
2023/03/17 05:45:46;;;;;;;4.47;3.03;;;7.50;99.90;;;;;;4990202;28;20509;-76
2023/03/17 05:48:12;;;;;;;4.93;3.45;;;7.50;99.90;;;;;;5003115;28;20436;-76
2023/03/17 05:50:38;;;;;;;5.40;3.00;;;7.60;99.90;;;;;;5008570;28;20748;-76
2023/03/17 05:53:05;;;;;;;3.95;3.08;;;7.60;99.90;;;;;;4982820;28;20444;-76
2023/03/17 05:55:31;;;;;;;6.63;3.42;;;7.60;99.90;;;;;;4989149;28;20425;-76
2023/03/17 05:57:56;;;;;;;4.03;3.38;;;7.60;99.90;;;;;;4988242;28;20496;-77
2023/03/17 06:00:22;;;;;;;6.10;2.92;;;7.60;99.90;;;;;;5019114;28;20428;-77
2023/03/17 06:02:48;;;;;;;5.95;3.55;;;7.60;99.90;;;;;;5003271;28;20475;-78
2023/03/17 06:05:14;;;;;;;4.20;2.90;;;7.60;99.90;;;;;;5002305;28;20440;-76
2023/03/17 06:07:40;;;;;;;6.20;3.00;;;7.60;99.90;;;;;;4998674;28;20493;-76
2023/03/17 06:10:07;;;;;;;5.20;3.72;;;7.70;99.90;;;;;;4999033;28;20430;-75
2023/03/17 06:12:32;;;;;;;4.75;2.97;;;7.70;99.90;;;;;;5006058;28;20922;-76
2023/03/17 06:14:58;;;;;;;6.18;3.13;;;7.70;99.90;;;;;;5004922;28;20474;-76
2023/03/17 06:17:24;;;;;;;6.63;3.22;;;7.70;99.90;;;;;;5005774;28;20460;-77
2023/03/17 06:19:50;;;;;;;3.58;2.90;;;7.70;99.90;;;;;;4982736;28;20442;-77
2023/03/17 06:22:15;;;;;;;5.50;3.10;;;7.80;99.90;;;;;;5005688;28;20780;-76
2023/03/17 06:24:41;;;;;;;5.28;2.70;;;7.70;99.90;;;;;;5005535;28;20428;-78
2023/03/17 06:27:09;;;;;;;5.47;3.40;;;7.80;99.90;;;;;;5002408;28;20491;-75
2023/03/17 06:29:36;;;;;;;4.57;2.78;;;7.80;99.90;;;;;;4991261;28;20447;-74
2023/03/17 06:32:02;;;;;;;5.23;3.50;;;7.80;99.90;;;;;;4998790;28;20513;-77
2023/03/17 06:34:28;;;;;;;4.68;2.72;;;7.80;99.90;;;;;;5003435;28;20425;-75
2023/03/17 06:36:54;;;;;;;5.38;2.92;;;7.90;99.90;;;;;;4992231;28;20445;-75
2023/03/17 06:39:20;;;;;;;7.07;2.80;;;7.90;99.90;;;;;;4996044;28;20424;-75
2023/03/17 06:41:46;;;;;;;5.60;3.17;;;7.90;99.90;;;;;;5007076;28;20520;-74
2023/03/17 06:44:12;;;;;;;5.45;2.90;;;7.90;99.90;;;;;;4993119;28;20474;-74
2023/03/17 06:46:38;;;;;;;7.07;3.78;;;7.90;99.90;;;;;;5006942;28;20448;-76
2023/03/17 06:49:04;;;;;;;4.72;3.45;;;8.00;99.90;;;;;;5021220;28;20495;-76
2023/03/17 06:51:31;;;;;;;7.57;3.20;;;8.00;99.90;;;;;;5020925;28;20421;-76
2023/03/17 06:53:57;;;;;;;4.38;3.33;;;8.00;99.90;;;;;;5013167;28;20441;-76
2023/03/17 06:56:23;;;;;;;5.53;3.33;;;8.00;99.90;;;;;;5017482;28;20453;-76
2023/03/17 06:58:50;;;;;;;4.47;2.73;;;8.00;99.90;;;;;;5004966;28;20503;-77
2023/03/17 07:01:16;;;;;;;5.00;3.13;;;8.00;99.90;;;;;;5012579;28;20872;-76
2023/03/17 07:03:42;;;;;;;5.05;3.20;;;8.00;99.90;;;;;;5002577;28;20562;-76
2023/03/17 07:06:08;;;;;;;6.18;2.75;;;8.00;99.90;;;;;;4995342;28;20421;-76
2023/03/17 07:08:35;;;;;;;4.67;3.00;;;8.10;99.90;;;;;;4993174;28;20438;-76
2023/03/17 07:11:02;;;;;;;4.20;2.88;;;8.10;99.90;;;;;;5003460;28;20490;-76
2023/03/17 07:13:28;;;;;;;4.77;3.07;;;8.10;99.90;;;;;;4999562;28;20934;-75
2023/03/17 07:15:55;;;;;;;5.22;3.22;;;8.20;99.90;;;;;;4998143;28;20475;-76
2023/03/17 07:18:20;;;;;;;6.47;3.28;;;8.30;99.90;;;;;;4997447;28;20425;-76
2023/03/17 07:20:46;;;;;;;6.73;3.63;;;8.50;99.90;;;;;;5006731;28;20479;-76
2023/03/17 07:23:19;;;;;;;5.20;3.30;;;8.50;99.90;;;;;;5013084;28;20496;-76
2023/03/17 07:25:46;;;;;;;4.63;2.97;;;8.70;99.90;;;;;;5006053;28;20883;-76
2023/03/17 07:28:12;;;;;;;3.83;2.90;;;8.80;99.90;;;;;;5003497;28;20436;-78
2023/03/17 07:30:39;;;;;;;6.40;2.90;;;8.90;99.90;;;;;;5018609;28;20928;-76
2023/03/17 07:33:05;;;;;;;4.47;2.83;;;9.00;99.90;;;;;;4998335;28;20430;-78
2023/03/17 07:35:32;;;;;;;6.10;2.60;;;9.10;99.90;;;;;;5018333;28;20407;-75
2023/03/17 07:37:58;;;;;;;4.93;3.17;;;9.40;99.90;;;;;;5003022;28;20462;-75
2023/03/17 07:40:25;;;;;;;4.05;2.80;;;9.30;99.90;;;;;;5009576;28;20416;-76
2023/03/17 07:42:51;;;;;;;4.80;2.67;;;9.30;99.90;;;;;;5012963;28;21297;-73
2023/03/17 07:45:16;;;;;;;5.80;3.07;;;9.20;99.90;;;;;;4986902;28;20495;-74
2023/03/17 07:47:42;;;;;;;5.40;3.03;;;9.20;99.90;;;;;;5005536;28;20428;-74
2023/03/17 07:50:08;;;;;;;5.15;3.42;;;9.20;99.90;;;;;;5007188;28;20424;-75
2023/03/17 07:52:34;;;;;;;6.45;2.97;;;9.30;99.90;;;;;;4984841;28;20936;-75
2023/03/17 07:55:00;;;;;;;3.45;2.75;;;9.40;99.90;;;;;;5002322;28;20814;-74
2023/03/17 07:57:26;;;;;;;3.92;2.55;;;9.40;99.90;;;;;;4992959;28;20490;-74
2023/03/17 07:59:51;;;;;;;4.72;3.70;;;9.40;99.90;;;;;;5003136;28;20430;-74
2023/03/17 08:02:18;;;;;;;3.78;2.60;;;9.40;99.90;;;;;;4995041;28;20416;-74
2023/03/17 08:04:44;;;;;;;5.10;2.95;;;9.40;99.90;;;;;;5009972;28;20526;-76
2023/03/17 08:07:11;;;;;;;8.52;3.05;;;9.60;99.90;;;;;;4993620;28;20777;-75
2023/03/17 08:09:37;;;;;;;5.22;3.28;;;9.50;99.90;;;;;;5007118;28;20763;-75
2023/03/17 08:12:04;;;;;;;7.50;3.17;;;9.50;99.90;;;;;;5007099;28;20435;-74
2023/03/17 08:14:30;;;;;;;4.25;2.88;;;9.40;99.90;;;;;;5006026;28;20497;-75
2023/03/17 08:16:56;;;;;;;6.07;3.10;;;9.50;99.90;;;;;;4992651;28;20880;-75
2023/03/17 08:19:23;;;;;;;3.92;3.35;;;9.60;99.90;;;;;;5006252;28;20433;-74
2023/03/17 08:21:49;;;;;;;6.32;3.13;;;9.50;99.90;;;;;;5005432;28;20576;-75
2023/03/17 08:24:15;;;;;;;6.22;3.20;;;9.60;99.90;;;;;;5006158;28;20427;-74
2023/03/17 08:26:42;;;;;;;3.38;2.40;;;9.70;99.90;;;;;;4979086;28;20430;-74
2023/03/17 08:29:08;;;;;;;5.18;3.03;;;9.80;99.90;;;;;;5007366;28;21706;-74
2023/03/17 08:31:34;;;;;;;6.30;3.85;;;9.80;99.90;;;;;;4994978;28;20458;-74
2023/03/17 08:34:01;;;;;;;4.90;2.83;;;9.80;99.90;;;;;;5002878;28;20529;-74
2023/03/17 08:36:27;;;;;;;5.05;2.63;;;9.80;99.90;;;;;;5007604;28;20421;-75
2023/03/17 08:38:54;;;;;;;6.67;3.07;;;9.80;99.90;;;;;;5004730;28;20478;-75
2023/03/17 08:41:23;;;;;;;2.90;2.55;;;9.80;99.90;;;;;;4974561;28;20422;-75
2023/03/17 08:43:50;;;;;;;6.43;3.45;;;9.80;99.90;;;;;;5006243;28;20428;-75
2023/03/17 08:46:24;;;;;;;5.68;2.90;;;9.90;99.90;;;;;;5008862;28;20436;-74
2023/03/17 08:48:53;;;;;;;4.53;3.08;;;10.10;99.90;;;;;;4993950;28;20426;-75
2023/03/17 08:51:20;;;;;;;4.18;2.80;;;10.40;99.90;;;;;;4983556;28;20997;-75
2023/03/17 08:53:46;;;;;;;6.90;2.90;;;10.40;99.90;;;;;;5005755;28;20417;-75
2023/03/17 08:56:13;;;;;;;4.82;2.97;;;10.70;99.90;;;;;;5004534;28;20416;-75
2023/03/17 08:58:39;;;;;;;5.30;3.67;;;10.80;99.90;;;;;;4991653;28;20503;-75
2023/03/17 09:01:05;;;;;;;5.55;3.35;;;10.90;99.90;;;;;;5004629;28;20421;-75
2023/03/17 09:03:32;;;;;;;4.82;2.60;;;11.00;99.90;;;;;;5006084;28;20417;-75
2023/03/17 09:05:58;;;;;;;4.53;2.80;;;11.20;99.90;;;;;;5006078;28;20409;-75
2023/03/17 09:08:25;;;;;;;5.50;2.92;;;11.30;99.90;;;;;;4993842;28;20434;-75
2023/03/17 09:10:51;;;;;;;4.22;2.97;;;11.20;99.90;;;;;;4993979;28;20430;-74
2023/03/17 09:13:17;;;;;;;5.38;3.15;;;11.40;99.90;;;;;;5006852;28;20487;-74
2023/03/17 09:15:44;;;;;;;7.35;3.20;;;11.50;99.90;;;;;;4983508;28;20422;-74
2023/03/17 09:18:11;;;;;;;4.30;3.35;;;11.70;99.90;;;;;;4995409;28;20483;-74
2023/03/17 09:20:36;;;;;;;7.07;3.27;;;11.70;99.90;;;;;;5003800;28;20461;-74
2023/03/17 09:23:09;;;;;;;5.87;3.37;;;11.90;99.90;;;;;;5005221;28;20428;-74
2023/03/17 09:25:36;;;;;;;4.32;2.95;;;11.90;99.90;;;;;;4987722;28;20418;-76
2023/03/17 09:28:02;;;;;;;4.23;3.10;;;11.90;99.90;;;;;;4990106;28;21023;-75
2023/03/17 09:30:29;;;;;;;7.32;4.00;;;11.80;99.90;;;;;;4995900;28;20417;-72
2023/03/17 09:32:55;;;;;;;6.95;4.00;;;11.90;99.90;;;;;;5004997;28;20429;-73
2023/03/17 09:35:21;;;;;;;5.88;3.40;;;11.90;99.90;;;;;;5008094;28;20777;-73
2023/03/17 09:37:47;;;;;;;6.68;3.60;;;12.00;99.90;;;;;;5008453;28;21225;-73
2023/03/17 09:40:17;;;;;;;5.85;3.85;;;12.10;99.90;;;;;;5006421;28;20547;-73
2023/03/17 09:42:57;;;;;;;4.93;3.53;;;12.30;99.90;;;;;;4982810;28;20462;-74
2023/03/17 09:45:37;;;;;;;9.73;4.43;;;12.50;99.90;;;;;;5006498;28;20477;-72
2023/03/17 09:48:45;;;;;;;4.50;3.42;;;12.50;99.90;;;;;;5012712;28;20476;-72
2023/03/17 09:51:17;;;;;;;6.40;3.58;;;12.50;99.90;;;;;;4994981;28;20442;-73
2023/03/17 09:54:05;;;;;;;8.40;3.55;;;12.50;99.90;;;;;;4994511;28;20442;-73
2023/03/17 09:56:35;;;;;;;6.18;3.25;;;12.60;99.90;;;;;;5000829;28;20409;-73
2023/03/17 09:59:38;;;;;;;5.25;3.70;;;12.70;99.90;;;;;;4998247;28;20420;-73
2023/03/17 10:02:36;;;;;;;7.78;4.40;;;12.70;99.90;;;;;;4992502;28;20806;-74
2023/03/17 10:05:20;;;;;;;7.13;4.20;;;12.90;99.90;;;;;;4981556;28;20451;-73
2023/03/17 10:08:10;;;;;;;6.90;3.80;;;12.90;99.90;;;;;;4994725;28;21142;-75
2023/03/17 10:10:48;;;;;;;5.55;3.95;;;13.00;99.90;;;;;;4998806;28;20417;-73
2023/03/17 10:13:22;;;;;;;5.88;3.40;;;13.10;99.90;;;;;;5002778;28;20426;-74
2023/03/17 10:15:54;;;;;;;7.78;4.35;;;13.30;99.90;;;;;;5009615;28;20775;-73
2023/03/17 10:18:26;;;;;;;6.97;3.80;;;13.40;99.90;;;;;;4997321;28;20457;-72
2023/03/17 10:21:03;;;;;;;5.25;3.80;;;13.40;99.90;;;;;;5019791;28;21030;-74
2023/03/17 10:23:32;;;;;;;8.57;3.72;;;13.50;99.90;;;;;;5000680;28;20424;-72
2023/03/17 10:26:08;;;;;;;7.00;4.65;;;13.60;99.90;;;;;;5005052;28;20482;-76
2023/03/17 10:28:37;;;;;;;7.63;4.28;;;13.70;99.90;;;;;;4996754;28;20925;-76
2023/03/17 10:31:18;;;;;;;7.90;4.93;;;13.70;99.90;;;;;;5001658;28;20428;-76
2023/03/17 10:33:47;;;;;;;4.75;3.55;;;13.70;99.90;;;;;;5005908;28;20915;-74
2023/03/17 10:36:15;;;;;;;7.47;4.22;;;13.90;99.90;;;;;;4998385;28;20432;-75
2023/03/17 10:38:51;;;;;;;5.57;4.03;;;13.90;99.90;;;;;;5004840;28;20421;-76
2023/03/17 10:41:17;;;;;;;7.05;3.95;;;14.00;99.90;;;;;;4989140;28;20784;-77
2023/03/17 10:43:52;;;;;;;6.00;4.37;;;14.00;99.90;;;;;;5005954;28;20479;-76
2023/03/17 10:46:23;;;;;;;7.18;4.65;;;13.90;99.90;;;;;;5005175;28;20435;-78
2023/03/17 10:48:55;;;;;;;6.38;4.15;;;13.90;99.90;;;;;;5005630;28;20752;-79
2023/03/17 10:51:35;;;;;;;8.35;4.38;;;14.00;99.90;;;;;;5001691;28;20439;-77
2023/03/17 10:54:19;;;;;;;6.90;4.03;;;14.20;99.90;;;;;;5000889;28;20425;-74
2023/03/17 10:56:54;;;;;;;6.03;4.30;;;14.20;99.90;;;;;;4999368;28;20452;-75
2023/03/17 10:59:29;;;;;;;7.82;4.47;;;14.20;99.90;;;;;;4999924;28;20955;-75
2023/03/17 11:01:59;;;;;;;7.53;4.32;;;14.30;99.90;;;;;;5002145;28;20450;-75
2023/03/17 11:04:41;;;;;;;5.93;4.22;;;14.30;99.90;;;;;;4993493;28;20430;-77
2023/03/17 11:07:20;;;;;;;9.73;5.70;;;14.40;99.90;;;;;;4996738;28;20443;-78
2023/03/17 11:09:51;;;;;;;6.70;4.73;;;14.10;99.90;;;;;;4992953;28;21007;-76
2023/03/17 11:12:26;;;;;;;8.45;5.75;;;14.20;99.90;;;;;;4995935;28;20429;-76
2023/03/17 11:15:02;;;;;;;7.47;4.95;;;14.20;99.90;;;;;;4987638;28;20425;-76
2023/03/17 11:17:54;;;;;;;6.63;4.88;;;14.20;99.90;;;;;;4991356;28;20454;-80
2023/03/17 11:20:33;;;;;;;8.07;5.20;;;14.40;99.90;;;;;;4977882;28;20438;-74
2023/03/17 11:23:10;;;;;;;7.60;4.68;;;14.50;99.90;;;;;;5004623;28;21020;-75
2023/03/17 11:25:40;;;;;;;9.77;5.40;;;14.60;99.90;;;;;;5008485;28;22688;-76
2023/03/17 11:28:21;;;;;;;6.70;5.10;;;14.50;99.90;;;;;;5006329;28;20432;-76
2023/03/17 11:31:14;;;;;;;12.52;5.57;;;14.60;99.90;;;;;;5008666;28;20511;-76
2023/03/17 11:34:22;;;;;;;8.40;5.68;;;14.70;99.90;;;;;;4998064;28;20432;-75
2023/03/17 11:37:10;;;;;;;9.70;4.55;;;14.60;99.90;;;;;;5007715;28;20440;-76
2023/03/17 11:40:04;;;;;;;7.27;4.93;;;14.60;99.90;;;;;;4991524;28;20424;-76
2023/03/17 11:42:35;;;;;;;6.95;5.10;;;14.60;99.90;;;;;;5000570;28;20428;-76
2023/03/17 11:45:16;;;;;;;7.88;4.25;;;14.70;99.90;;;;;;5002437;28;20491;-75
2023/03/17 11:48:28;;;;;;;9.23;4.87;;;14.90;99.90;;;;;;5004489;28;20513;-76
2023/03/17 11:51:05;;;;;;;7.38;4.65;;;14.80;99.90;;;;;;4991139;28;20413;-76
2023/03/17 11:53:41;;;;;;;8.48;5.57;;;14.90;99.90;;;;;;5003184;28;20428;-76
2023/03/17 11:56:29;;;;;;;7.50;5.40;;;15.10;99.90;;;;;;5008431;28;20433;-76
2023/03/17 11:59:01;;;;;;;7.97;5.53;;;15.20;99.90;;;;;;5005366;28;20420;-76
2023/03/17 12:01:38;;;;;;;8.82;5.45;;;15.20;99.90;;;;;;5006218;28;20490;-79
2023/03/17 12:04:33;;;;;;;8.60;5.38;;;15.10;99.90;;;;;;5006746;28;20421;-75
2023/03/17 12:07:21;;;;;;;8.77;6.10;;;15.30;99.90;;;;;;4995883;28;22337;-78
2023/03/17 12:10:04;;;;;;;9.50;6.05;;;15.20;99.90;;;;;;5004863;28;20417;-77
2023/03/17 12:12:36;;;;;;;7.88;5.70;;;15.30;99.90;;;;;;4997719;28;20429;-76
2023/03/17 12:15:04;;;;;;;6.78;5.03;;;15.20;99.90;;;;;;5008917;28;20412;-75
2023/03/17 12:17:38;;;;;;;8.60;5.50;;;15.30;99.90;;;;;;5006111;28;20448;-76
2023/03/17 12:20:17;;;;;;;9.75;5.50;;;15.50;99.90;;;;;;5007457;28;20480;-77
2023/03/17 12:23:04;;;;;;;7.97;5.53;;;15.50;99.90;;;;;;5004480;28;20432;-77
2023/03/17 12:25:50;;;;;;;10.57;6.65;;;15.70;99.90;;;;;;5005164;28;20430;-75
2023/03/17 12:28:26;;;;;;;8.33;5.87;;;15.70;99.90;;;;;;4990684;28;20447;-75
2023/03/17 12:31:08;;;;;;;8.07;5.80;;;15.90;99.90;;;;;;5007769;28;20401;-79
2023/03/17 12:33:48;;;;;;;10.07;6.03;;;15.90;99.90;;;;;;5002632;28;20539;-79
2023/03/17 12:36:16;;;;;;;7.20;5.07;;;16.00;99.90;;;;;;4998203;28;20509;-82
2023/03/17 12:39:04;;;;;;;12.57;6.40;;;16.10;99.90;;;;;;5008481;28;20452;-82
2023/03/17 12:42:01;;;;;;;12.02;6.78;;;16.00;99.90;;;;;;5007736;28;20447;-81
2023/03/17 12:45:12;;;;;;;9.52;5.82;;;15.80;99.90;;;;;;4997139;28;20429;-81
2023/03/17 12:47:56;;;;;;;9.07;6.60;;;15.80;99.90;;;;;;4998180;28;20520;-80
2023/03/17 12:50:41;;;;;;;8.30;5.50;;;15.70;99.90;;;;;;5002201;28;20439;-80
2023/03/17 12:53:18;;;;;;;9.55;5.70;;;15.50;99.90;;;;;;5002470;28;20772;-83
2023/03/17 12:55:48;;;;;;;9.43;6.72;;;15.60;99.90;;;;;;5010712;28;20422;-83
2023/03/17 12:58:25;;;;;;;8.68;5.53;;;15.50;99.90;;;;;;4977837;28;20463;-83
2023/03/17 13:01:06;;;;;;;7.47;5.53;;;15.60;99.90;;;;;;5005308;28;20891;-82
2023/03/17 13:03:35;;;;;;;8.65;5.70;;;15.50;99.90;;;;;;4990334;28;20498;-82
2023/03/17 13:06:03;;;;;;;10.10;5.72;;;15.30;99.90;;;;;;5007705;28;20428;-82
2023/03/17 13:08:35;;;;;;;9.70;6.13;;;15.10;99.90;;;;;;5004988;28;20428;-81